Time;durP1;ratioP1;P1;durP2;ratioP2;P2;SDS_P1;SDS_P2;PMS_P1;PMS_P2;Temp;Humidity;BMP_temperature;BMP_pressure;BME280_temperature;BME280_humidity;BME280_pressure;Samples;Min_cycle;Max_cycle;Signal;HPM_P1;HPM_P2
2023/05/21 00:00:28;;;;;;;13.93;6.55;;;;;;;16.75;100.00;98826.75;4485619;31;20097;-66
2023/05/21 00:02:57;;;;;;;11.15;7.07;;;;;;;16.71;100.00;98830.75;4485205;31;20401;-66
2023/05/21 00:05:25;;;;;;;9.57;6.32;;;;;;;16.64;100.00;98827.97;4485635;31;20212;-66
2023/05/21 00:07:53;;;;;;;12.27;6.78;;;;;;;16.57;100.00;98824.38;4485744;32;20096;-66
2023/05/21 00:10:21;;;;;;;12.02;6.32;;;;;;;16.53;100.00;98836.28;4485536;31;20529;-66
2023/05/21 00:12:48;;;;;;;17.35;7.00;;;;;;;16.53;100.00;98823.06;4493000;31;20436;-66
2023/05/21 00:15:15;;;;;;;12.10;7.40;;;;;;;16.50;100.00;98824.28;4496235;31;20443;-66
2023/05/21 00:17:44;;;;;;;15.30;6.93;;;;;;;16.43;100.00;98823.31;4485633;31;20583;-66
2023/05/21 00:20:12;;;;;;;15.13;6.43;;;;;;;16.43;100.00;98835.72;4485322;31;20423;-66
2023/05/21 00:22:41;;;;;;;10.90;6.30;;;;;;;16.35;100.00;98833.09;4485497;31;20088;-66
2023/05/21 00:25:10;;;;;;;8.73;5.95;;;;;;;16.36;100.00;98830.28;4485397;31;20482;-66
2023/05/21 00:27:37;;;;;;;10.60;6.72;;;;;;;16.30;100.00;98841.53;4485520;31;20121;-66
2023/05/21 00:30:05;;;;;;;10.43;6.28;;;;;;;16.38;100.00;98844.16;4485799;31;20096;-66
2023/05/21 00:32:33;;;;;;;10.45;6.60;;;;;;;16.34;100.00;98842.84;4485746;31;20122;-66
2023/05/21 00:35:00;;;;;;;16.15;6.12;;;;;;;16.27;100.00;98836.59;4485326;31;20100;-66
2023/05/21 00:37:33;;;;;;;10.43;6.32;;;;;;;16.26;100.00;98837.59;4485752;31;20092;-66
2023/05/21 00:40:01;;;;;;;9.82;6.85;;;;;;;16.13;100.00;98833.69;4485447;31;20123;-66
2023/05/21 00:42:29;;;;;;;9.25;5.72;;;;;;;16.08;100.00;98833.38;4485485;31;20114;-66
2023/05/21 00:44:56;;;;;;;16.70;6.70;;;;;;;16.01;100.00;98835.06;4485257;31;20480;-66
2023/05/21 00:47:28;;;;;;;11.02;7.05;;;;;;;15.94;100.00;98829.63;4485429;31;20099;-66
2023/05/21 00:49:55;;;;;;;8.73;6.03;;;;;;;15.91;100.00;98834.41;4485290;31;20147;-66
2023/05/21 00:52:25;;;;;;;17.25;7.30;;;;;;;15.87;100.00;98830.50;4485537;32;20165;-66
2023/05/21 00:54:53;;;;;;;10.93;6.60;;;;;;;15.88;100.00;98829.47;4485357;31;20068;-66
2023/05/21 00:57:22;;;;;;;14.43;6.85;;;;;;;15.81;100.00;98823.25;4483669;32;20143;-66
2023/05/21 00:59:51;;;;;;;12.30;6.50;;;;;;;15.77;100.00;98830.62;4485434;31;20179;-66
2023/05/21 01:02:18;;;;;;;11.68;6.22;;;;;;;15.76;100.00;98819.25;4485204;31;20144;-66
2023/05/21 01:04:46;;;;;;;10.93;6.32;;;;;;;15.65;100.00;98819.59;4485325;31;20438;-66
2023/05/21 01:07:13;;;;;;;10.90;6.40;;;;;;;15.59;100.00;98825.56;4485071;31;20085;-66
2023/05/21 01:09:41;;;;;;;13.23;6.43;;;;;;;15.53;100.00;98815.66;4485501;31;20196;-66
2023/05/21 01:12:10;;;;;;;12.30;6.20;;;;;;;15.50;100.00;98822.09;4488406;31;20100;-66
2023/05/21 01:14:38;;;;;;;14.95;6.82;;;;;;;15.46;100.00;98819.94;4498914;31;20092;-66
2023/05/21 01:17:09;;;;;;;10.63;6.25;;;;;;;15.39;100.00;98810.06;4483645;32;20152;-66
2023/05/21 01:19:36;;;;;;;7.97;5.70;;;;;;;15.39;100.00;98809.25;4483881;32;20160;-66
2023/05/21 01:22:06;;;;;;;10.55;6.80;;;;;;;15.34;100.00;98814.22;4485015;31;20575;-66
2023/05/21 01:24:34;;;;;;;13.18;7.28;;;;;;;15.34;100.00;98806.31;4485245;31;20135;-66
2023/05/21 01:27:02;;;;;;;9.82;6.37;;;;;;;15.29;100.00;98801.53;4484745;31;20174;-66
2023/05/21 01:29:29;;;;;;;9.75;6.32;;;;;;;15.24;100.00;98799.34;4485037;32;20122;-66
2023/05/21 01:32:35;;;;;;;10.13;6.53;;;;;;;15.25;100.00;98803.66;4484806;31;20171;-66
2023/05/21 01:35:24;;;;;;;15.32;6.82;;;;;;;15.22;100.00;98798.72;4485125;32;20104;-66
2023/05/21 01:37:57;;;;;;;13.62;6.53;;;;;;;15.21;100.00;98806.78;4483535;32;20457;-66
2023/05/21 01:40:38;;;;;;;10.48;6.12;;;;;;;15.27;100.00;98795.56;4483632;32;20123;-66
2023/05/21 01:43:07;;;;;;;8.55;6.15;;;;;;;15.26;100.00;98804.47;4483700;32;20566;-66
2023/05/21 01:45:37;;;;;;;11.77;7.00;;;;;;;15.25;100.00;98794.91;4484742;31;20092;-66
2023/05/21 01:48:06;;;;;;;9.43;6.82;;;;;;;15.27;100.00;98796.37;4483424;32;20122;-66
2023/05/21 01:50:36;;;;;;;10.02;6.70;;;;;;;15.34;100.00;98798.38;4484626;31;20213;-66
2023/05/21 01:53:04;;;;;;;12.65;6.25;;;;;;;15.30;100.00;98795.22;4484709;31;20092;-66
2023/05/21 01:55:31;;;;;;;14.20;6.85;;;;;;;15.34;100.00;98801.84;4484649;31;20153;-66
2023/05/21 01:57:59;;;;;;;11.68;6.18;;;;;;;15.31;100.00;98799.53;4484860;31;20129;-66
2023/05/21 02:00:31;;;;;;;11.88;6.85;;;;;;;15.30;100.00;98800.50;4485068;31;20424;-66
2023/05/21 02:02:58;;;;;;;9.63;6.40;;;;;;;15.26;100.00;98804.47;4484533;32;20108;-66
2023/05/21 02:05:25;;;;;;;13.85;6.78;;;;;;;15.25;100.00;98805.47;4484585;31;20134;-66
2023/05/21 02:07:53;;;;;;;11.75;6.50;;;;;;;15.23;100.00;98802.16;4484294;31;20122;-66
2023/05/21 02:10:21;;;;;;;9.43;6.20;;;;;;;15.18;100.00;98793.94;4484557;31;20626;-66
2023/05/21 02:12:48;;;;;;;9.80;5.72;;;;;;;15.18;100.00;98799.22;4491785;31;20501;-66
2023/05/21 02:15:18;;;;;;;12.93;6.40;;;;;;;15.12;100.00;98803.31;4495099;31;20406;-66
2023/05/21 02:17:45;;;;;;;10.45;6.60;;;;;;;15.01;100.00;98801.84;4484453;31;20088;-66
2023/05/21 02:20:13;;;;;;;10.90;6.10;;;;;;;14.89;100.00;98809.25;4484633;32;20512;-66
2023/05/21 02:22:44;;;;;;;11.00;5.90;;;;;;;14.84;100.00;98801.03;4484239;31;20110;-66
2023/05/21 02:25:13;;;;;;;11.88;6.47;;;;;;;14.83;100.00;98804.63;4484413;31;20080;-66
2023/05/21 02:27:41;;;;;;;10.75;6.30;;;;;;;14.79;100.00;98799.84;4486232;31;20097;-66
2023/05/21 02:30:10;;;;;;;9.32;5.90;;;;;;;14.75;100.00;98798.53;4486254;31;20122;-66
2023/05/21 02:32:41;;;;;;;12.77;6.30;;;;;;;14.72;100.00;98797.88;4486077;31;20476;-66
2023/05/21 02:35:11;;;;;;;10.02;6.37;;;;;;;14.70;100.00;98799.84;4486408;31;20106;-66
2023/05/21 02:37:42;;;;;;;12.93;6.62;;;;;;;14.75;100.00;98807.28;4486260;31;20616;-66
2023/05/21 02:40:11;;;;;;;9.43;6.10;;;;;;;14.71;100.00;98801.47;4486402;31;20509;-66
2023/05/21 02:42:40;;;;;;;10.85;6.10;;;;;;;14.60;100.00;98806.25;4486059;31;20091;-66
2023/05/21 02:45:08;;;;;;;9.80;6.30;;;;;;;14.55;100.00;98798.81;4486428;31;20175;-66
2023/05/21 02:47:37;;;;;;;10.40;6.03;;;;;;;14.58;100.00;98797.66;4485878;31;20089;-66
2023/05/21 02:50:07;;;;;;;9.88;5.97;;;;;;;14.57;100.00;98798.66;4486393;31;20100;-66
2023/05/21 02:52:35;;;;;;;10.45;6.28;;;;;;;14.54;100.00;98797.16;4486402;31;20199;-66
2023/05/21 02:55:03;;;;;;;13.15;6.20;;;;;;;14.59;100.00;98797.47;4486380;31;20093;-66
2023/05/21 02:57:30;;;;;;;9.75;6.22;;;;;;;14.62;100.00;98801.66;4485859;31;20103;-66
2023/05/21 02:59:57;;;;;;;11.52;6.05;;;;;;;14.60;100.00;98799.16;4486094;31;20172;-66
2023/05/21 03:02:24;;;;;;;9.82;6.32;;;;;;;14.64;100.00;98794.38;4486088;32;20097;-66
2023/05/21 03:04:53;;;;;;;10.80;6.60;;;;;;;14.63;100.00;98792.75;4486358;31;20161;-66
2023/05/21 03:07:20;;;;;;;11.45;6.43;;;;;;;14.61;100.00;98797.34;4485844;31;20107;-66
2023/05/21 03:09:47;;;;;;;10.63;5.55;;;;;;;14.60;100.00;98801.78;4485986;32;20088;-66
2023/05/21 03:12:15;;;;;;;9.35;6.03;;;;;;;14.57;100.00;98799.47;4489729;31;20092;-66
2023/05/21 03:14:42;;;;;;;9.75;5.57;;;;;;;14.56;100.00;98797.81;4500694;31;20092;-66
2023/05/21 03:17:12;;;;;;;10.70;5.25;;;;;;;14.54;100.00;98797.16;4485771;32;20131;-66
2023/05/21 03:19:40;;;;;;;8.00;5.28;;;;;;;14.53;100.00;98796.34;4485887;31;20668;-66
2023/05/21 03:22:08;;;;;;;11.55;6.40;;;;;;;14.53;100.00;98788.44;4485807;32;20145;-66
2023/05/21 03:24:37;;;;;;;10.13;5.95;;;;;;;14.53;100.00;98796.34;4485951;31;20096;-66
2023/05/21 03:27:07;;;;;;;8.35;5.30;;;;;;;14.58;100.00;98793.22;4485897;31;20119;-66
2023/05/21 03:29:35;;;;;;;10.45;5.95;;;;;;;14.60;100.00;98793.88;4485919;31;20144;-66
2023/05/21 03:32:02;;;;;;;8.05;5.37;;;;;;;14.66;100.00;98790.63;4486101;31;20159;-66
2023/05/21 03:34:33;;;;;;;9.88;5.55;;;;;;;14.63;100.00;98790.13;4484453;32;20947;-66
2023/05/21 03:37:01;;;;;;;12.13;6.00;;;;;;;14.67;100.00;98779.09;4485384;31;20096;-66
2023/05/21 03:39:28;;;;;;;9.55;5.93;;;;;;;14.66;100.00;98787.97;4485801;31;20161;-66
2023/05/21 03:41:55;;;;;;;12.75;6.45;;;;;;;14.66;100.00;98784.53;4485688;31;20156;-66
2023/05/21 03:44:23;;;;;;;9.18;5.40;;;;;;;14.66;100.00;98793.25;4484514;32;20077;-66
2023/05/21 03:46:50;;;;;;;9.77;5.57;;;;;;;14.67;100.00;98789.63;4485986;31;20119;-66
2023/05/21 03:49:19;;;;;;;9.07;5.25;;;;;;;14.68;100.00;98788.63;4485615;31;20144;-66
2023/05/21 03:51:46;;;;;;;10.13;5.03;;;;;;;14.69;100.00;98787.66;4485851;31;20389;-66
2023/05/21 03:54:15;;;;;;;6.87;5.37;;;;;;;14.76;100.00;98798.38;4485853;31;20160;-66
2023/05/21 03:56:42;;;;;;;8.40;5.55;;;;;;;14.84;100.00;98792.28;4485699;31;20130;-66
2023/05/21 03:59:10;;;;;;;11.12;5.50;;;;;;;14.94;100.00;98794.75;4485706;31;20583;-66
2023/05/21 04:01:38;;;;;;;9.27;6.10;;;;;;;14.93;100.00;98793.94;4485723;31;20085;-66
2023/05/21 04:04:06;;;;;;;10.85;5.32;;;;;;;14.97;100.00;98797.88;4484191;32;20108;-66
2023/05/21 04:06:34;;;;;;;8.80;5.37;;;;;;;15.06;100.00;98796.91;4485811;31;20104;-66
2023/05/21 04:09:03;;;;;;;9.23;5.95;;;;;;;15.12;100.00;98800.69;4485293;31;20524;-66
2023/05/21 04:11:31;;;;;;;11.45;5.60;;;;;;;15.23;100.00;98796.87;4485864;31;20100;-66
2023/05/21 04:13:58;;;;;;;9.73;5.95;;;;;;;15.26;100.00;98802.66;4500435;31;20088;-66
2023/05/21 04:16:25;;;;;;;7.35;5.28;;;;;;;15.30;100.00;98805.78;4488734;31;20107;-66
2023/05/21 04:18:54;;;;;;;8.23;4.68;;;;;;;15.39;100.00;98804.78;4485591;32;20114;-66
2023/05/21 04:21:21;;;;;;;7.82;5.03;;;;;;;15.50;100.00;98808.06;4485861;31;20087;-66
2023/05/21 04:23:48;;;;;;;7.28;4.80;;;;;;;15.53;100.00;98805.91;4485755;32;20101;-66
2023/05/21 04:26:17;;;;;;;8.45;5.20;;;;;;;15.61;100.00;98805.09;4484287;32;20457;-66
2023/05/21 04:28:45;;;;;;;7.45;5.30;;;;;;;15.78;100.00;98808.56;4485690;31;20096;-66
2023/05/21 04:31:12;;;;;;;7.18;4.70;;;;;;;15.78;100.00;98809.34;4485608;31;20131;-66
2023/05/21 04:33:44;;;;;;;7.50;4.78;;;;;;;15.94;100.00;98810.28;4485768;31;20100;-66
2023/05/21 04:36:12;;;;;;;7.78;4.87;;;;;;;16.14;100.00;98822.13;4485575;32;20161;-66
2023/05/21 04:38:40;;;;;;;7.18;4.40;;;;;;;16.42;100.00;98816.38;4485772;31;20116;-66
2023/05/21 04:41:09;;;;;;;8.82;5.05;;;;;;;16.59;100.00;98816.28;4485379;31;20093;-66
2023/05/21 04:43:37;;;;;;;9.98;5.22;;;;;;;16.70;100.00;98818.53;4485303;31;20108;-66
2023/05/21 04:46:04;;;;;;;10.45;5.93;;;;;;;16.70;100.00;98821.19;4485617;31;20139;-66
2023/05/21 04:48:32;;;;;;;7.68;5.18;;;;;;;16.80;100.00;98813.81;4485338;31;20122;-66
2023/05/21 04:50:59;;;;;;;7.70;5.43;;;;;;;16.81;100.00;98820.75;4485464;31;20164;-66
2023/05/21 04:53:28;;;;;;;7.32;4.85;;;;;;;16.85;100.00;98827.34;4485354;31;20112;-66
2023/05/21 04:55:58;;;;;;;7.80;5.05;;;;;;;16.91;100.00;98817.94;4485353;31;20096;-66
2023/05/21 04:58:26;;;;;;;10.07;4.50;;;;;;;16.98;100.00;98815.38;4485567;31;20477;-66
2023/05/21 05:00:54;;;;;;;7.07;4.70;;;;;;;17.12;100.00;98809.31;4485031;31;20084;-66
2023/05/21 05:03:22;;;;;;;7.90;5.05;;;;;;;17.13;100.00;98818.09;4485226;31;20100;-66
2023/05/21 05:05:50;;;;;;;8.05;5.28;;;;;;;17.26;100.00;98809.53;4485239;31;20096;-66
2023/05/21 05:08:19;;;;;;;11.50;5.07;;;;;;;17.27;100.00;98805.88;4485291;31;20100;-66
2023/05/21 05:10:47;;;;;;;10.02;5.25;;;;;;;17.40;99.11;98814.03;4485018;32;20439;-66
2023/05/21 05:13:14;;;;;;;9.57;5.00;;;;;;;17.45;98.93;98821.44;4495728;31;20429;-66
2023/05/21 05:15:42;;;;;;;7.87;5.22;;;;;;;17.57;97.68;98809.41;4493167;31;20096;-66
2023/05/21 05:18:10;;;;;;;7.43;4.97;;;;;;;17.67;96.34;98814.44;4485115;31;20454;-66
2023/05/21 05:20:39;;;;;;;7.78;5.10;;;;;;;17.70;94.25;98806.13;4485006;31;20164;-66
2023/05/21 05:23:06;;;;;;;9.18;5.07;;;;;;;17.78;94.89;98811.34;4485205;32;20510;-66
2023/05/21 05:25:34;;;;;;;8.70;4.68;;;;;;;17.77;94.39;98808.88;4484977;31;20123;-66
2023/05/21 05:28:01;;;;;;;8.02;5.15;;;;;;;17.80;95.11;98811.97;4485227;31;20096;-67
2023/05/21 05:30:28;;;;;;;9.60;4.90;;;;;;;17.91;95.41;98816.84;4484721;32;20127;-66
2023/05/21 05:32:57;;;;;;;8.48;4.40;;;;;;;17.94;91.73;98820.13;4485195;32;20108;-66
2023/05/21 05:35:24;;;;;;;8.23;4.80;;;;;;;17.98;94.54;98814.28;4485132;31;20175;-66
2023/05/21 05:37:51;;;;;;;7.07;4.97;;;;;;;18.10;92.34;98814.63;4484886;31;20088;-66
2023/05/21 05:40:18;;;;;;;7.80;5.05;;;;;;;18.23;92.07;98814.81;4485137;31;20096;-66
2023/05/21 05:42:48;;;;;;;34.85;5.20;;;;;;;18.37;90.07;98814.97;4485187;31;20092;-66
2023/05/21 05:45:15;;;;;;;7.20;4.68;;;;;;;18.54;90.57;98815.56;4484963;31;20101;-66
2023/05/21 05:47:43;;;;;;;9.07;4.78;;;;;;;18.57;88.34;98805.37;4484821;31;20506;-66
2023/05/21 05:50:10;;;;;;;8.80;4.85;;;;;;;18.57;86.84;98813.34;4484610;31;20092;-66
2023/05/21 05:52:37;;;;;;;7.35;4.32;;;;;;;18.72;88.53;98815.94;4484852;31;20089;-66
2023/05/21 05:55:07;;;;;;;7.75;4.65;;;;;;;18.78;86.42;98811.72;4484488;32;20159;-66
2023/05/21 05:57:35;;;;;;;8.32;4.60;;;;;;;18.87;86.96;98805.31;4484851;31;20151;-66
2023/05/21 06:00:06;;;;;;;8.30;4.18;;;;;;;18.79;83.63;98806.22;4484298;31;20622;-67
2023/05/21 06:02:38;;;;;;;6.05;4.15;;;;;;;18.72;82.40;98804.53;4483511;32;20107;-66
2023/05/21 06:05:08;;;;;;;9.23;4.12;;;;;;;18.86;84.10;98808.16;4484870;31;20084;-66
2023/05/21 06:07:39;;;;;;;5.90;4.20;;;;;;;18.82;81.90;98797.06;4484962;31;20095;-66
2023/05/21 06:10:07;;;;;;;10.45;4.22;;;;;;;18.93;84.25;98804.56;4484460;31;20103;-66
2023/05/21 06:12:34;;;;;;;10.63;4.37;;;;;;;19.22;82.81;98808.06;4490582;31;20155;-66
2023/05/21 06:15:01;;;;;;;6.32;4.00;;;;;;;19.23;80.08;98796.44;4496797;31;20092;-66
2023/05/21 06:17:30;;;;;;;12.25;4.60;;;;;;;19.24;79.94;98799.91;4484838;31;20123;-66
2023/05/21 06:19:57;;;;;;;6.55;3.90;;;;;;;19.17;77.79;98794.56;4484555;31;20450;-66
2023/05/21 06:22:25;;;;;;;7.55;4.60;;;;;;;19.20;77.10;98803.94;4484763;31;20510;-66
2023/05/21 06:24:53;;;;;;;7.00;3.72;;;;;;;19.30;78.00;98804.44;4484648;32;20134;-66
2023/05/21 06:27:20;;;;;;;7.03;4.18;;;;;;;19.19;76.70;98807.62;4484394;32;20111;-66
2023/05/21 06:29:48;;;;;;;7.28;4.45;;;;;;;19.31;77.60;98800.78;4484528;31;20167;-66
2023/05/21 06:32:15;;;;;;;7.50;4.45;;;;;;;19.31;76.72;98806.91;4484555;31;20150;-66
2023/05/21 06:34:43;;;;;;;7.35;4.78;;;;;;;19.29;77.35;98798.31;4484468;31;20100;-66
2023/05/21 06:37:10;;;;;;;7.35;3.80;;;;;;;19.38;75.87;98803.47;4484132;31;20127;-67
2023/05/21 06:39:37;;;;;;;7.37;4.30;;;;;;;19.42;76.20;98796.78;4484170;31;20145;-66
2023/05/21 06:42:05;;;;;;;7.07;3.78;;;;;;;19.52;75.13;98801.75;4484316;31;20089;-66
2023/05/21 06:44:37;;;;;;;9.35;4.12;;;;;;;19.71;76.53;98806.34;4484368;31;20091;-66
2023/05/21 06:47:05;;;;;;;7.22;4.87;;;;;;;19.92;76.43;98791.38;4484212;32;20137;-66
2023/05/21 06:49:33;;;;;;;6.75;4.12;;;;;;;19.90;75.33;98794.22;4484361;31;20093;-66
2023/05/21 06:52:01;;;;;;;6.12;3.90;;;;;;;20.05;74.32;98793.28;4484072;31;20096;-66
2023/05/21 06:54:28;;;;;;;10.77;4.62;;;;;;;20.11;73.71;98797.81;4484447;31;20103;-66
2023/05/21 06:56:55;;;;;;;9.75;3.90;;;;;;;20.16;73.83;98798.03;4483791;31;20168;-66
2023/05/21 06:59:23;;;;;;;7.18;4.43;;;;;;;20.32;70.47;98787.03;4484128;31;20406;-67
2023/05/21 07:01:50;;;;;;;6.37;3.92;;;;;;;20.47;72.07;98791.38;4484005;31;20763;-66
2023/05/21 07:04:18;;;;;;;12.68;4.28;;;;;;;20.52;69.18;98786.28;4484122;31;20123;-66
2023/05/21 07:06:45;;;;;;;12.73;4.68;;;;;;;20.39;67.78;98795.88;4483681;31;20104;-66
2023/05/21 07:09:13;;;;;;;6.50;4.25;;;;;;;20.31;68.92;98789.91;4483613;31;20084;-66
2023/05/21 07:11:40;;;;;;;7.07;4.18;;;;;;;20.34;70.18;98786.84;4483665;31;20093;-66
2023/05/21 07:14:08;;;;;;;14.87;5.50;;;;;;;20.59;69.93;98788.94;4501676;31;20125;-67
2023/05/21 07:16:35;;;;;;;11.82;4.12;;;;;;;20.74;70.50;98789.63;4488183;31;20088;-67
2023/05/21 07:19:03;;;;;;;8.52;4.87;;;;;;;20.98;71.24;98785.53;4490232;31;20095;-67
2023/05/21 07:21:30;;;;;;;6.78;4.07;;;;;;;21.00;68.92;98794.16;4489398;31;20123;-67
2023/05/21 07:23:58;;;;;;;6.20;4.18;;;;;;;21.13;70.16;98795.19;4485945;32;20111;-68
2023/05/21 07:26:25;;;;;;;7.70;3.97;;;;;;;21.15;67.36;98785.97;4485891;32;20080;-67
2023/05/21 07:28:52;;;;;;;9.80;4.72;;;;;;;21.32;68.27;98789.03;4486272;32;20142;-67
2023/05/21 07:31:20;;;;;;;8.20;4.50;;;;;;;21.30;67.89;98784.94;4485917;31;20108;-67
2023/05/21 07:33:47;;;;;;;28.42;4.90;;;;;;;21.38;70.47;98784.75;4486099;31;20123;-67
2023/05/21 07:36:15;;;;;;;6.45;4.07;;;;;;;21.31;68.17;98789.25;4485883;32;20134;-67
2023/05/21 07:38:43;;;;;;;13.27;4.90;;;;;;;21.43;66.88;98779.59;4484987;32;20153;-67
2023/05/21 07:41:11;;;;;;;7.47;4.57;;;;;;;21.50;67.40;98785.78;4485905;32;20183;-67
2023/05/21 07:43:38;;;;;;;6.82;4.00;;;;;;;21.53;67.61;98784.53;4485979;32;20100;-67
2023/05/21 07:46:07;;;;;;;11.30;4.30;;;;;;;21.48;65.58;98778.97;4485747;32;20513;-67
2023/05/21 07:48:34;;;;;;;9.23;4.28;;;;;;;21.41;66.24;98779.00;4485775;31;20105;-67
2023/05/21 07:51:02;;;;;;;6.80;4.18;;;;;;;21.59;69.08;98775.69;4486090;32;20077;-67
2023/05/21 07:53:31;;;;;;;12.45;4.32;;;;;;;21.78;65.11;98779.34;4485893;32;20084;-67
2023/05/21 07:55:59;;;;;;;6.78;4.10;;;;;;;21.75;65.42;98779.75;4485863;32;20112;-67
2023/05/21 07:58:27;;;;;;;6.47;3.87;;;;;;;21.99;65.43;98780.91;4485438;31;20442;-66
2023/05/21 08:00:54;;;;;;;8.15;4.60;;;;;;;21.61;63.72;98777.12;4485751;32;20486;-66
2023/05/21 08:03:26;;;;;;;8.90;4.80;;;;;;;21.57;63.89;98777.75;4485876;32;20100;-66
2023/05/21 08:05:53;;;;;;;5.05;4.07;;;;;;;21.85;66.15;98777.47;4485812;31;20084;-67
2023/05/21 08:08:22;;;;;;;9.98;4.03;;;;;;;22.08;62.33;98774.31;4485385;32;20559;-66
2023/05/21 08:10:51;;;;;;;7.75;3.80;;;;;;;22.09;62.38;98778.62;4485633;32;20072;-67
2023/05/21 08:13:18;;;;;;;5.12;4.03;;;;;;;22.04;62.41;98777.62;4496165;31;20134;-67
2023/05/21 08:15:47;;;;;;;7.32;4.25;;;;;;;21.99;61.67;98780.91;4493427;31;20548;-67
2023/05/21 08:18:18;;;;;;;6.55;3.83;;;;;;;22.19;63.56;98775.50;4485640;31;20149;-66
2023/05/21 08:20:47;;;;;;;6.40;3.92;;;;;;;22.03;63.14;98782.16;4485825;31;20084;-67
2023/05/21 08:23:14;;;;;;;9.02;4.10;;;;;;;21.95;62.87;98771.69;4485362;31;20519;-66
2023/05/21 08:25:44;;;;;;;6.82;4.18;;;;;;;22.09;58.75;98778.62;4485816;31;20091;-67
2023/05/21 08:28:11;;;;;;;8.55;4.18;;;;;;;21.95;60.21;98783.19;4485274;31;20108;-67
2023/05/21 08:30:40;;;;;;;10.07;3.85;;;;;;;22.05;61.55;98780.06;4485715;31;20148;-67
2023/05/21 08:33:07;;;;;;;8.57;4.70;;;;;;;22.00;61.25;98782.56;4485261;31;20806;-67
2023/05/21 08:35:34;;;;;;;5.47;4.00;;;;;;;22.15;60.90;98774.31;4485607;31;20118;-66
2023/05/21 08:38:02;;;;;;;7.37;4.15;;;;;;;22.22;60.70;98782.25;4485528;31;20167;-67
2023/05/21 08:40:30;;;;;;;9.40;4.35;;;;;;;22.00;60.55;98777.22;4485750;31;20447;-67
2023/05/21 08:42:57;;;;;;;9.63;4.45;;;;;;;22.25;62.25;98776.50;4485644;31;20119;-67
2023/05/21 08:45:25;;;;;;;8.15;4.70;;;;;;;22.57;63.26;98777.38;4485795;31;20593;-67
2023/05/21 08:47:56;;;;;;;9.43;4.45;;;;;;;22.57;60.02;98774.69;4484007;32;20101;-67
2023/05/21 08:50:26;;;;;;;9.45;4.47;;;;;;;22.49;62.33;98775.78;4484315;32;20115;-67
2023/05/21 08:52:54;;;;;;;5.50;4.18;;;;;;;22.75;60.67;98776.66;4485454;31;20108;-68
2023/05/21 08:55:22;;;;;;;10.73;4.45;;;;;;;22.81;57.75;98785.66;4485174;31;20100;-67
2023/05/21 08:57:49;;;;;;;9.18;4.60;;;;;;;22.92;61.19;98784.13;4483922;32;20156;-67
2023/05/21 09:00:19;;;;;;;7.40;4.50;;;;;;;23.07;60.40;98781.94;4485421;31;20118;-67
2023/05/21 09:02:47;;;;;;;6.97;4.50;;;;;;;22.84;58.14;98777.19;4485434;31;20118;-67
2023/05/21 09:05:16;;;;;;;5.55;4.10;;;;;;;22.90;61.75;98772.84;4485517;31;20092;-67
2023/05/21 09:07:54;;;;;;;6.70;4.70;;;;;;;22.82;56.41;98788.09;4484146;32;20517;-67
2023/05/21 09:10:24;;;;;;;6.80;4.43;;;;;;;22.63;60.06;98770.38;4485169;32;20417;-67
2023/05/21 09:12:52;;;;;;;19.60;4.85;;;;;;;22.72;58.35;98779.75;4493276;31;20100;-67
2023/05/21 09:15:20;;;;;;;8.52;5.35;;;;;;;22.76;61.19;98775.63;4495766;31;20159;-67
2023/05/21 09:17:47;;;;;;;6.53;3.85;;;;;;;23.00;61.22;98776.66;4483890;32;20098;-67
2023/05/21 09:20:16;;;;;;;6.25;4.50;;;;;;;23.07;58.40;98786.50;4485380;31;20100;-67
2023/05/21 09:22:47;;;;;;;8.43;4.45;;;;;;;23.05;57.51;98778.69;4485495;31;20100;-67
2023/05/21 09:25:20;;;;;;;8.05;5.12;;;;;;;23.14;57.71;98782.75;4485168;31;20080;-67
2023/05/21 09:27:47;;;;;;;7.85;4.40;;;;;;;23.15;54.59;98772.88;4485478;31;20110;-67
2023/05/21 09:30:16;;;;;;;9.30;4.43;;;;;;;22.98;51.06;98783.25;4484951;31;20130;-67
2023/05/21 09:32:45;;;;;;;5.75;4.65;;;;;;;23.18;54.52;98786.63;4485021;31;20116;-67
2023/05/21 09:35:13;;;;;;;5.22;3.95;;;;;;;23.02;53.29;98787.13;4484173;31;20091;-67
2023/05/21 09:37:43;;;;;;;5.72;4.55;;;;;;;23.19;58.42;98785.59;4485215;31;20105;-67
2023/05/21 09:40:14;;;;;;;11.35;4.80;;;;;;;23.41;54.25;98779.84;4484913;31;20424;-67
2023/05/21 09:42:46;;;;;;;6.93;4.28;;;;;;;23.43;54.45;98780.44;4485270;31;20148;-67
2023/05/21 09:45:18;;;;;;;6.43;4.28;;;;;;;23.48;54.15;98777.09;4485163;31;20144;-67
2023/05/21 09:47:47;;;;;;;8.27;4.53;;;;;;;23.68;53.90;98777.72;4485087;31;20076;-67
2023/05/21 09:50:22;;;;;;;7.72;4.53;;;;;;;23.43;53.38;98779.63;4484699;31;20106;-67
2023/05/21 09:52:51;;;;;;;7.40;4.25;;;;;;;23.46;51.71;98788.00;4483548;32;20076;-67
2023/05/21 09:55:23;;;;;;;6.72;4.75;;;;;;;23.50;55.55;98783.06;4484677;31;20104;-67
2023/05/21 09:57:51;;;;;;;12.55;4.70;;;;;;;23.52;52.93;98783.66;4484517;32;20123;-67
2023/05/21 10:00:26;;;;;;;7.37;4.50;;;;;;;23.40;54.52;98780.87;4484652;31;20148;-67
2023/05/21 10:02:55;;;;;;;11.65;4.30;;;;;;;23.64;54.12;98781.06;4484546;32;20130;-67
2023/05/21 10:05:25;;;;;;;5.87;4.18;;;;;;;23.85;56.11;98769.13;4484468;31;20103;-67
2023/05/21 10:08:03;;;;;;;11.73;4.25;;;;;;;24.04;54.74;98773.44;4484622;31;20111;-67
2023/05/21 10:10:31;;;;;;;7.87;4.50;;;;;;;23.97;51.88;98771.88;4484469;31;20077;-67
2023/05/21 10:13:05;;;;;;;7.62;4.43;;;;;;;23.73;52.93;98774.37;4492973;31;20099;-67
2023/05/21 10:15:43;;;;;;;6.55;4.37;;;;;;;24.06;56.65;98762.50;4493451;31;20100;-67
2023/05/21 10:18:12;;;;;;;8.57;4.28;;;;;;;24.26;56.49;98768.41;4483209;32;20092;-67
2023/05/21 10:20:40;;;;;;;11.70;4.43;;;;;;;24.23;53.03;98771.53;4484367;31;20120;-67
2023/05/21 10:23:07;;;;;;;6.22;4.15;;;;;;;24.44;58.50;98766.75;4483007;32;20115;-67
2023/05/21 10:25:36;;;;;;;10.13;4.50;;;;;;;24.43;54.91;98762.41;4482980;32;20095;-67
2023/05/21 10:28:05;;;;;;;8.23;4.30;;;;;;;24.47;54.84;98758.25;4484103;31;20878;-67
2023/05/21 10:30:33;;;;;;;9.15;4.55;;;;;;;24.33;49.75;98767.50;4482929;32;20099;-67
2023/05/21 10:33:00;;;;;;;6.32;4.10;;;;;;;24.53;52.90;98757.34;4482768;32;20104;-67
2023/05/21 10:35:28;;;;;;;6.65;4.45;;;;;;;24.62;53.42;98758.66;4484167;31;20159;-67
2023/05/21 10:37:56;;;;;;;6.35;4.22;;;;;;;24.79;58.18;98760.69;4484518;31;20111;-67
2023/05/21 10:40:23;;;;;;;7.05;3.80;;;;;;;24.90;50.56;98756.41;4482763;32;20085;-67
2023/05/21 10:42:57;;;;;;;7.80;3.80;;;;;;;24.66;49.37;98760.88;4484292;31;20152;-67
2023/05/21 10:45:41;;;;;;;5.85;4.05;;;;;;;25.09;54.31;98754.44;4484238;31;20111;-67
2023/05/21 10:48:38;;;;;;;8.68;4.00;;;;;;;24.94;48.53;98750.34;4485841;32;20171;-67
2023/05/21 10:51:18;;;;;;;9.98;3.87;;;;;;;24.71;49.98;98758.31;4421420;32;20106;-67
2023/05/21 10:54:07;;;;;;;10.10;4.25;;;;;;;24.56;49.39;98756.06;4409234;32;20094;-67
2023/05/21 10:56:56;;;;;;;4.90;3.50;;;;;;;24.49;47.61;98764.19;4421213;32;20119;-67
2023/05/21 10:59:43;;;;;;;8.00;4.30;;;;;;;24.60;46.31;98758.09;4421870;32;20124;-67
2023/05/21 11:02:12;;;;;;;4.68;3.97;;;;;;;24.44;47.62;98761.38;4409145;32;20503;-67
2023/05/21 11:04:42;;;;;;;7.93;4.00;;;;;;;24.48;46.95;98746.47;4421497;32;20144;-67
2023/05/21 11:07:11;;;;;;;6.10;4.10;;;;;;;24.70;48.04;98748.69;4421542;32;20605;-67
2023/05/21 11:09:38;;;;;;;7.03;3.80;;;;;;;24.80;49.33;98752.44;4421468;32;20098;-67
2023/05/21 11:12:08;;;;;;;6.25;3.42;;;;;;;24.84;48.40;98750.09;4424115;32;20136;-67
2023/05/21 11:14:39;;;;;;;9.20;4.18;;;;;;;25.01;47.16;98746.75;4436200;32;20129;-67
2023/05/21 11:17:35;;;;;;;7.65;4.15;;;;;;;25.04;47.42;98747.09;4421429;32;20205;-67
2023/05/21 11:20:15;;;;;;;5.78;3.80;;;;;;;24.87;47.58;98746.94;4421323;32;20101;-67
2023/05/21 11:22:45;;;;;;;5.80;3.87;;;;;;;24.89;47.71;98746.72;4421330;32;20089;-67
2023/05/21 11:25:14;;;;;;;5.80;3.78;;;;;;;25.01;47.79;98746.75;4421428;32;20101;-67
2023/05/21 11:27:41;;;;;;;11.32;4.37;;;;;;;25.30;47.79;98732.44;4445654;32;20088;-67
2023/05/21 11:30:14;;;;;;;5.15;3.75;;;;;;;25.68;49.15;98731.09;4485776;31;20143;-67
2023/05/21 11:33:06;;;;;;;6.67;4.03;;;;;;;26.04;47.85;98736.37;4485926;31;20088;-67
2023/05/21 11:35:49;;;;;;;6.78;4.03;;;;;;;26.15;46.99;98732.84;4485821;31;20160;-67